San Francisco, CA

12:31 PM PST on December 20, 2014 (GMT -0800)
SoMa | Change Station
CLOSE
Current Station
Personal Weather Station
Location: San Francisco, CA
Elevation: 36 ft
Nearby Weather Stations

Elev 36 ft 37.77 °N, 122.41 °W | Updated 30 seconds ago

Mostly Cloudy
Mostly Cloudy
61.3 °F
Feels Like 61.3 °F
N
0.9
Wind Variable Wind from South
Gusts 2.5 mph

Today
High -- | Low -- °F
--% Chance of Precip.
Yesterday
High -- | Low -- °F
Precip. -- in
7:20 AM 4:53 PM
Waning Crescent, 2% visible
Pressure 30.19 in
Visibility 8.0 miles
Clouds Few 1200 ft
Mostly Cloudy 7000 ft
Mostly Cloudy 13000 ft
Dew Point 56 °F
Humidity 83%
Rainfall 0.00 in
Snow Depth Not available.
UV 2.0 out of 12
Pollen 4.00 out of 12
Air Quality Not available.
Flu Activity Not available.
METAR KSFO 201956Z 08005KT 8SM FEW012 BKN070 BKN130 15/14 A3019 RMK AO2 SLP223 T01500144

More Conditions Fewer Conditions

Pressure 30.19 in
Visibility 8.0 miles
Clouds Few 1200 ft
Mostly Cloudy 7000 ft
Mostly Cloudy 13000 ft
Dew Point 56 °F
Humidity 83%
Rainfall 0.00 in
Snow Depth Not available.
UV 2.0 out of 12
Pollen 4.00 out of 12
Air Quality Not available.
Flu Activity Not available.
METAR KSFO 201956Z 08005KT 8SM FEW012 BKN070 BKN130 15/14 A3019 RMK AO2 SLP223 T01500144

More Conditions Fewer Conditions

10-Day Weather Forecast

Almanac

Astronomy

Dec. 20, 2014 Rise Set
Actual Time
Civil Twilight
Nautical Twilight
Astronomical Twilight
Moon
Length of Visible Light
Length of Day
Tomorrow will be .
, % of the Moon is Illuminated

Today's Extremes

State Highs State Lows

Community

WunderPhotos

Upload Photos

1,779,270 photos uploaded!

WunderBlogs® & News

Nearby

Air Quality

  Air Quality AQ Index Pollutant
Not available.

Snow Depth

Station Depth Elevation

Earthquake Activity

City Distance Mag. Time & Date
Minimum magnitude displayed is 2.5.

Coastal Water Temperatures

Place Temperature

Nearby Weather Stations